createdAt,value
2023-05-17T00:01:08.180Z,6.23
2023-05-17T00:03:38.917Z,6.20
2023-05-17T00:06:06.535Z,6.22
2023-05-17T00:08:34.020Z,6.22
2023-05-17T00:11:01.664Z,6.18
2023-05-17T00:13:29.123Z,6.18
2023-05-17T00:15:56.612Z,6.16
2023-05-17T00:18:24.320Z,6.09
2023-05-17T00:20:51.908Z,6.05
2023-05-17T00:23:19.449Z,6.08
2023-05-17T00:25:46.984Z,6.10
2023-05-17T00:28:14.483Z,6.10
2023-05-17T00:30:42.018Z,6.09
2023-05-17T00:33:09.677Z,6.08
2023-05-17T00:35:37.253Z,6.04
2023-05-17T00:38:04.826Z,6.02
2023-05-17T00:40:32.379Z,6.04
2023-05-17T00:43:00.147Z,6.04
2023-05-17T00:45:27.967Z,5.97
2023-05-17T00:47:56.637Z,5.92
2023-05-17T00:50:24.601Z,5.90
2023-05-17T00:52:52.185Z,5.88
2023-05-17T00:55:20.707Z,5.92
2023-05-17T00:57:49.011Z,5.89
2023-05-17T01:00:17.224Z,5.86
2023-05-17T01:02:48.889Z,5.84
2023-05-17T01:05:16.601Z,5.84
2023-05-17T01:07:44.038Z,5.88
2023-05-17T01:10:12.159Z,5.85
2023-05-17T01:12:56.030Z,5.80
2023-05-17T01:15:33.218Z,5.78
2023-05-17T01:18:12.732Z,5.75
2023-05-17T01:20:43.886Z,5.74
2023-05-17T01:23:48.947Z,5.72
2023-05-17T01:26:27.916Z,5.64
2023-05-17T01:28:57.493Z,5.64
2023-05-17T01:31:26.543Z,5.58
2023-05-17T01:33:58.996Z,5.50
2023-05-17T01:36:28.643Z,5.47
2023-05-17T01:38:56.238Z,5.43
2023-05-17T01:41:30.952Z,5.38
2023-05-17T01:44:10.524Z,5.32
2023-05-17T01:46:43.219Z,5.26
2023-05-17T01:49:30.055Z,5.20
2023-05-17T01:52:05.523Z,5.20
2023-05-17T01:54:59.923Z,5.18
2023-05-17T01:57:29.963Z,5.15
2023-05-17T02:00:00.663Z,5.12
2023-05-17T02:02:30.424Z,5.09
2023-05-17T02:04:58.746Z,5.10
2023-05-17T02:07:27.096Z,5.09
2023-05-17T02:09:56.110Z,5.11
2023-05-17T02:12:23.623Z,5.11
2023-05-17T02:14:51.209Z,5.14
2023-05-17T02:17:18.933Z,5.16
2023-05-17T02:19:46.444Z,5.19
2023-05-17T02:22:14.024Z,5.20
2023-05-17T02:24:41.586Z,5.25
2023-05-17T02:27:09.045Z,5.24
2023-05-17T02:29:36.793Z,5.24
2023-05-17T02:32:04.557Z,5.22
2023-05-17T02:34:32.298Z,5.21
2023-05-17T02:37:00.456Z,5.19
2023-05-17T02:39:27.993Z,5.15
2023-05-17T02:41:55.843Z,5.17
2023-05-17T02:44:24.682Z,5.15
2023-05-17T02:46:53.995Z,5.14
2023-05-17T02:49:21.624Z,5.14
2023-05-17T02:51:49.134Z,5.08
2023-05-17T02:54:16.693Z,5.02
2023-05-17T02:56:44.204Z,4.99
2023-05-17T02:59:12.143Z,5.01
2023-05-17T03:01:42.455Z,4.93
2023-05-17T03:04:10.741Z,4.88
2023-05-17T03:06:38.735Z,4.90
2023-05-17T03:09:07.164Z,4.86
2023-05-17T03:11:35.179Z,4.87
2023-05-17T03:14:06.576Z,4.88
2023-05-17T03:16:34.170Z,4.82
2023-05-17T03:19:02.631Z,4.80
2023-05-17T03:21:30.450Z,4.81
2023-05-17T03:23:58.288Z,4.81
2023-05-17T03:26:27.661Z,4.82
2023-05-17T03:28:55.242Z,4.82
2023-05-17T03:31:22.740Z,4.84
2023-05-17T03:33:50.525Z,4.87
2023-05-17T03:36:19.413Z,4.91
2023-05-17T03:38:46.999Z,4.94
2023-05-17T03:41:15.403Z,4.98
2023-05-17T03:43:43.121Z,5.03
2023-05-17T03:46:13.086Z,5.12
2023-05-17T03:48:41.583Z,5.17
2023-05-17T03:51:10.559Z,5.27
2023-05-17T03:53:41.364Z,5.35
2023-05-17T03:56:12.245Z,5.46
2023-05-17T03:58:40.001Z,5.56
2023-05-17T04:01:07.485Z,5.64
2023-05-17T04:03:37.785Z,5.70
2023-05-17T04:06:07.381Z,5.81
2023-05-17T04:08:36.794Z,5.90
2023-05-17T04:11:10.627Z,6.00
2023-05-17T04:13:38.369Z,6.07
2023-05-17T04:16:06.966Z,6.38
2023-05-17T04:18:36.403Z,6.79
2023-05-17T04:21:05.360Z,7.24
2023-05-17T04:23:34.946Z,7.85
2023-05-17T04:26:04.966Z,8.26
2023-05-17T04:28:35.573Z,8.58
2023-05-17T04:31:08.421Z,9.01
2023-05-17T04:33:37.150Z,9.21
2023-05-17T04:36:06.698Z,10.00
2023-05-17T04:38:35.442Z,10.67
2023-05-17T04:41:06.786Z,11.01
2023-05-17T04:43:37.092Z,11.34
2023-05-17T04:46:09.266Z,11.64
2023-05-17T04:48:37.268Z,11.38
2023-05-17T04:51:05.264Z,10.93
2023-05-17T04:53:33.834Z,10.38
2023-05-17T04:56:07.538Z,9.70
2023-05-17T04:58:36.155Z,9.44
2023-05-17T05:01:05.997Z,9.45
2023-05-17T05:03:35.183Z,9.19
2023-05-17T05:06:04.341Z,9.06
2023-05-17T05:08:34.372Z,8.90
2023-05-17T05:11:02.303Z,8.68
2023-05-17T05:13:30.965Z,8.75
2023-05-17T05:15:58.691Z,8.95
2023-05-17T05:18:27.033Z,9.14
2023-05-17T05:20:54.745Z,9.28
2023-05-17T05:23:22.383Z,9.29
2023-05-17T05:25:50.241Z,9.15
2023-05-17T05:28:18.245Z,8.96
2023-05-17T05:30:45.912Z,8.89
2023-05-17T05:33:15.002Z,8.77
2023-05-17T05:35:43.602Z,8.88
2023-05-17T05:38:11.353Z,8.94
2023-05-17T05:40:39.173Z,9.34
2023-05-17T05:43:06.772Z,9.41
2023-05-17T05:45:34.387Z,9.37
2023-05-17T05:48:05.823Z,9.21
2023-05-17T05:50:35.025Z,9.00
2023-05-17T05:53:18.013Z,9.29
2023-05-17T05:55:52.276Z,9.63
2023-05-17T05:58:21.024Z,9.81
2023-05-17T06:00:48.974Z,9.71
2023-05-17T06:03:16.646Z,9.50
2023-05-17T06:05:44.341Z,9.33
2023-05-17T06:08:11.920Z,9.27
2023-05-17T06:10:39.438Z,9.11
2023-05-17T06:13:07.167Z,9.30
2023-05-17T06:15:34.865Z,9.60
2023-05-17T06:18:02.540Z,9.91
2023-05-17T06:20:30.446Z,10.65
2023-05-17T06:22:58.239Z,10.57
2023-05-17T06:25:25.834Z,10.99
2023-05-17T06:27:53.247Z,10.38
2023-05-17T06:30:21.091Z,10.52
2023-05-17T06:32:48.686Z,10.71
2023-05-17T06:35:16.415Z,10.55
2023-05-17T06:37:43.966Z,10.54
2023-05-17T06:40:16.464Z,10.49
2023-05-17T06:42:44.867Z,10.13
2023-05-17T06:45:13.921Z,10.22
2023-05-17T06:47:41.832Z,10.03
2023-05-17T06:50:09.957Z,9.78
2023-05-17T06:52:37.470Z,9.62
2023-05-17T06:55:05.331Z,9.82
2023-05-17T06:57:32.911Z,9.90
2023-05-17T07:00:00.432Z,9.98
2023-05-17T07:02:27.908Z,10.14
2023-05-17T07:04:56.897Z,10.41
2023-05-17T07:07:24.418Z,11.12
2023-05-17T07:09:52.001Z,11.98
2023-05-17T07:12:19.538Z,12.43
2023-05-17T07:14:47.106Z,11.28
2023-05-17T07:17:14.550Z,10.64
2023-05-17T07:19:42.209Z,10.71
2023-05-17T07:22:10.255Z,10.98
2023-05-17T07:24:37.729Z,10.74
2023-05-17T07:27:05.667Z,10.75
2023-05-17T07:29:33.247Z,10.94
2023-05-17T07:32:00.824Z,10.53
2023-05-17T07:34:28.375Z,10.63
2023-05-17T07:36:57.255Z,11.02
2023-05-17T07:39:24.784Z,11.38
2023-05-17T07:41:52.314Z,11.65
2023-05-17T07:44:21.907Z,11.61
2023-05-17T07:46:52.165Z,11.67
2023-05-17T07:49:19.961Z,11.38
2023-05-17T07:51:47.636Z,11.45
2023-05-17T07:54:27.070Z,11.17
2023-05-17T07:56:55.598Z,10.86
2023-05-17T07:59:26.336Z,10.42
2023-05-17T08:01:54.076Z,10.31
2023-05-17T08:04:21.662Z,10.32
2023-05-17T08:06:50.336Z,10.51
2023-05-17T08:09:18.141Z,10.89
2023-05-17T08:11:48.664Z,11.29
2023-05-17T08:14:17.173Z,12.61
2023-05-17T08:16:46.521Z,12.29
2023-05-17T08:19:15.458Z,11.86
2023-05-17T08:21:44.087Z,11.64
2023-05-17T08:24:11.926Z,11.99
2023-05-17T08:26:39.564Z,12.40
2023-05-17T08:29:07.359Z,12.39
2023-05-17T08:31:34.883Z,12.09
2023-05-17T08:34:02.421Z,13.19
2023-05-17T08:36:30.038Z,14.45
2023-05-17T08:38:57.648Z,14.00
2023-05-17T08:41:25.248Z,13.44
2023-05-17T08:43:54.347Z,11.94
2023-05-17T08:46:23.917Z,11.99
2023-05-17T08:48:53.547Z,12.71
2023-05-17T08:51:22.168Z,12.82
2023-05-17T08:53:50.876Z,12.64
2023-05-17T08:56:20.925Z,12.13
2023-05-17T08:58:56.953Z,12.45
2023-05-17T09:01:26.734Z,12.60
2023-05-17T09:03:55.048Z,12.08
2023-05-17T09:06:24.553Z,11.95
2023-05-17T09:08:53.857Z,11.71
2023-05-17T09:11:39.450Z,12.28
2023-05-17T09:14:07.957Z,12.51
2023-05-17T09:16:37.400Z,12.40
2023-05-17T09:19:06.377Z,12.43
2023-05-17T09:21:34.559Z,12.34
2023-05-17T09:24:07.327Z,12.43
2023-05-17T09:26:40.351Z,12.56
2023-05-17T09:29:16.056Z,12.47
2023-05-17T09:31:45.005Z,12.34
2023-05-17T09:34:12.709Z,11.84
2023-05-17T09:36:44.145Z,12.20
2023-05-17T09:39:13.789Z,12.57
2023-05-17T09:41:48.174Z,12.94
2023-05-17T09:44:16.693Z,12.81
2023-05-17T09:46:49.017Z,12.66
2023-05-17T09:49:18.070Z,12.35
2023-05-17T09:51:47.860Z,12.04
2023-05-17T09:54:15.575Z,12.09
2023-05-17T09:56:43.418Z,12.40
2023-05-17T09:59:13.416Z,12.68
2023-05-17T10:01:43.126Z,13.06
2023-05-17T10:04:12.168Z,13.35
2023-05-17T10:09:19.057Z,13.01
2023-05-17T10:11:47.490Z,12.93
2023-05-17T10:14:24.102Z,12.72
2023-05-17T10:16:52.528Z,12.34
2023-05-17T10:19:25.182Z,11.68
2023-05-17T10:21:53.997Z,11.59
2023-05-17T10:24:21.981Z,11.78
2023-05-17T10:26:50.668Z,11.75
2023-05-17T10:29:21.310Z,11.77
2023-05-17T10:31:53.123Z,11.74
2023-05-17T10:34:21.417Z,11.92
2023-05-17T10:36:50.221Z,11.68
2023-05-17T10:39:18.434Z,12.01
2023-05-17T10:41:52.888Z,12.09
2023-05-17T10:44:22.102Z,12.11
2023-05-17T10:46:57.610Z,12.15
2023-05-17T10:49:33.238Z,12.40
2023-05-17T10:52:16.991Z,12.87
2023-05-17T10:54:48.874Z,12.93
2023-05-17T10:57:50.567Z,13.01
2023-05-17T11:00:22.109Z,13.37
2023-05-17T11:02:51.026Z,13.67
2023-05-17T11:05:25.904Z,13.61
2023-05-17T11:08:14.332Z,13.31
2023-05-17T11:11:14.251Z,12.67
2023-05-17T11:14:03.586Z,13.27
2023-05-17T11:16:38.198Z,14.03
2023-05-17T11:19:11.420Z,14.54
2023-05-17T11:21:47.506Z,15.34
2023-05-17T11:24:25.710Z,14.99
2023-05-17T11:26:56.071Z,15.16
2023-05-17T11:29:29.635Z,14.38
2023-05-17T11:31:57.315Z,13.50
2023-05-17T11:34:30.057Z,13.61
2023-05-17T11:36:57.708Z,14.02
2023-05-17T11:39:25.698Z,15.25
2023-05-17T11:41:57.008Z,15.99
2023-05-17T11:44:34.891Z,16.43
2023-05-17T11:47:04.254Z,16.00
2023-05-17T11:49:36.331Z,16.06
2023-05-17T11:52:06.333Z,16.73
2023-05-17T11:54:34.405Z,16.93
2023-05-17T11:57:05.140Z,16.51
2023-05-17T11:59:41.839Z,15.81
2023-05-17T12:02:10.183Z,14.31
2023-05-17T12:04:39.477Z,13.89
2023-05-17T12:07:10.909Z,13.93
2023-05-17T12:09:39.494Z,14.06
2023-05-17T12:12:07.836Z,14.84
2023-05-17T12:14:35.451Z,15.09
2023-05-17T12:17:08.213Z,14.57
2023-05-17T12:19:36.303Z,14.69
2023-05-17T12:22:09.008Z,15.02
2023-05-17T12:24:38.532Z,14.78
2023-05-17T12:27:06.607Z,14.75
2023-05-17T12:29:34.619Z,14.80
2023-05-17T12:32:02.781Z,14.28
2023-05-17T12:34:31.317Z,14.48
2023-05-17T12:36:59.184Z,14.72
2023-05-17T12:39:27.003Z,14.43
2023-05-17T12:41:55.373Z,14.96
2023-05-17T12:44:22.994Z,15.61
2023-05-17T12:46:53.991Z,15.90
2023-05-17T12:49:22.348Z,15.29
2023-05-17T12:51:50.305Z,14.54
2023-05-17T12:54:23.854Z,14.29
2023-05-17T12:56:51.707Z,14.74
2023-05-17T12:59:25.703Z,14.74
2023-05-17T13:01:55.949Z,14.92
2023-05-17T13:04:34.408Z,14.15
2023-05-17T13:07:04.282Z,14.31
2023-05-17T13:09:33.418Z,14.62
2023-05-17T13:12:08.090Z,14.78
2023-05-17T13:14:49.463Z,14.98
2023-05-17T13:17:22.398Z,15.17
2023-05-17T13:19:50.391Z,15.32
2023-05-17T13:22:18.144Z,15.24
2023-05-17T13:24:45.682Z,14.85
2023-05-17T13:27:13.332Z,15.66
2023-05-17T13:29:42.828Z,16.24
2023-05-17T13:32:12.156Z,16.79
2023-05-17T13:34:40.780Z,16.83
2023-05-17T13:37:11.536Z,16.96
2023-05-17T13:39:41.830Z,16.68
2023-05-17T13:42:11.155Z,17.24
2023-05-17T13:44:39.287Z,17.44
2023-05-17T13:47:07.144Z,17.64
2023-05-17T13:49:34.778Z,17.60
2023-05-17T13:52:03.755Z,16.98
2023-05-17T13:54:31.349Z,16.71
2023-05-17T13:56:58.891Z,16.73
2023-05-17T13:59:26.443Z,16.00
2023-05-17T14:01:54.267Z,15.11
2023-05-17T14:04:21.737Z,15.22
2023-05-17T14:06:51.147Z,15.32
2023-05-17T14:09:20.545Z,15.83
2023-05-17T14:11:48.046Z,16.28
2023-05-17T14:14:15.748Z,16.69
2023-05-17T14:16:43.283Z,16.79
2023-05-17T14:19:10.915Z,16.31
2023-05-17T14:21:38.578Z,16.22
2023-05-17T14:24:06.828Z,16.59
2023-05-17T14:26:34.348Z,16.78
2023-05-17T14:29:01.945Z,16.97
2023-05-17T14:31:30.387Z,17.07
2023-05-17T14:33:58.888Z,16.37
2023-05-17T14:36:26.655Z,16.09
2023-05-17T14:38:54.292Z,15.44
2023-05-17T14:41:22.692Z,15.32
2023-05-17T14:43:50.270Z,15.41
2023-05-17T14:46:17.804Z,15.67
2023-05-17T14:48:45.376Z,15.85
2023-05-17T14:51:13.872Z,15.95
2023-05-17T14:53:41.480Z,15.75
2023-05-17T14:56:08.980Z,15.79
2023-05-17T14:58:36.570Z,15.92
2023-05-17T15:01:06.152Z,15.85
2023-05-17T15:03:34.970Z,15.74
2023-05-17T15:06:06.921Z,15.64
2023-05-17T15:08:36.224Z,15.73
2023-05-17T15:11:03.765Z,16.00
2023-05-17T15:13:31.644Z,16.19
2023-05-17T15:15:59.597Z,15.85
2023-05-17T15:18:27.215Z,15.82
2023-05-17T15:20:54.706Z,16.12
2023-05-17T15:23:22.179Z,16.14
2023-05-17T15:25:49.823Z,15.88
2023-05-17T15:28:20.013Z,15.78
2023-05-17T15:30:47.930Z,15.89
2023-05-17T15:33:16.007Z,15.67
2023-05-17T15:35:44.921Z,15.03
2023-05-17T15:38:12.347Z,14.90
2023-05-17T15:40:39.876Z,15.00
2023-05-17T15:43:07.415Z,15.31
2023-05-17T15:45:34.876Z,15.16
2023-05-17T15:48:02.755Z,15.36
2023-05-17T15:50:30.267Z,15.35
2023-05-17T15:52:57.743Z,15.36
2023-05-17T15:55:25.338Z,15.47
2023-05-17T15:57:52.789Z,15.54
2023-05-17T16:00:21.230Z,15.76
2023-05-17T16:02:48.875Z,15.44
2023-05-17T16:05:16.594Z,15.03
2023-05-17T16:07:46.990Z,14.84
2023-05-17T16:10:14.625Z,14.61
2023-05-17T16:12:42.097Z,14.63
2023-05-17T16:15:10.017Z,14.65
2023-05-17T16:17:37.539Z,14.81
2023-05-17T16:20:05.659Z,14.66
2023-05-17T16:22:33.650Z,14.79
2023-05-17T16:25:01.215Z,14.90
2023-05-17T16:27:28.733Z,15.02
2023-05-17T16:29:56.405Z,15.06
2023-05-17T16:32:23.912Z,14.64
2023-05-17T16:34:51.891Z,14.60
2023-05-17T16:37:19.426Z,14.35
2023-05-17T16:39:47.525Z,14.30
2023-05-17T16:42:15.298Z,14.39
2023-05-17T16:44:42.774Z,14.47
2023-05-17T16:47:10.437Z,14.45
2023-05-17T16:49:38.918Z,14.15
2023-05-17T16:52:06.505Z,13.97
2023-05-17T16:54:35.599Z,14.01
2023-05-17T16:57:08.374Z,13.74
2023-05-17T16:59:36.266Z,13.55
2023-05-17T17:02:04.539Z,13.53
2023-05-17T17:04:32.342Z,13.51
2023-05-17T17:07:00.436Z,13.42
2023-05-17T17:09:28.330Z,13.43
2023-05-17T17:11:55.848Z,13.56
2023-05-17T17:14:24.473Z,13.58
2023-05-17T17:16:51.987Z,13.62
2023-05-17T17:19:19.675Z,13.54
2023-05-17T17:21:47.246Z,13.49
2023-05-17T17:24:14.895Z,13.47
2023-05-17T17:26:42.568Z,13.51
2023-05-17T17:29:10.530Z,13.51
2023-05-17T17:31:38.250Z,13.44
2023-05-17T17:34:06.006Z,13.35
2023-05-17T17:36:33.485Z,13.36
2023-05-17T17:39:01.042Z,13.28
2023-05-17T17:41:29.230Z,13.29
2023-05-17T17:43:56.750Z,13.12
2023-05-17T17:46:25.484Z,13.11
2023-05-17T17:48:54.434Z,13.10
2023-05-17T17:51:23.697Z,13.08
2023-05-17T17:53:53.250Z,13.05
2023-05-17T17:56:21.579Z,12.92
2023-05-17T17:58:49.056Z,12.79
2023-05-17T18:01:16.592Z,12.77
2023-05-17T18:03:44.209Z,12.71
2023-05-17T18:06:11.706Z,12.71
2023-05-17T18:08:39.294Z,12.60
2023-05-17T18:11:06.871Z,12.28
2023-05-17T18:13:34.529Z,12.23
2023-05-17T18:16:02.121Z,12.26
2023-05-17T18:18:29.758Z,12.36
2023-05-17T18:20:57.352Z,12.35
2023-05-17T18:23:25.150Z,12.47
2023-05-17T18:25:52.727Z,12.36
2023-05-17T18:28:33.532Z,12.32
2023-05-17T18:31:07.726Z,12.32
2023-05-17T18:33:35.263Z,12.25
2023-05-17T18:36:02.914Z,12.28
2023-05-17T18:38:30.469Z,12.18
2023-05-17T18:40:57.992Z,12.04
2023-05-17T18:43:25.625Z,11.92
2023-05-17T18:45:53.425Z,11.86
2023-05-17T18:48:22.358Z,11.79
2023-05-17T18:50:50.060Z,11.77
2023-05-17T18:53:17.587Z,11.69
2023-05-17T18:55:45.157Z,11.63
2023-05-17T18:58:12.686Z,11.57
2023-05-17T19:00:40.329Z,11.54
2023-05-17T19:03:07.990Z,11.50
2023-05-17T19:05:35.676Z,11.47
2023-05-17T19:08:03.204Z,11.41
2023-05-17T19:10:30.954Z,11.37
2023-05-17T19:12:58.589Z,11.29
2023-05-17T19:15:26.493Z,11.22
2023-05-17T19:17:54.138Z,11.22
2023-05-17T19:20:21.764Z,11.16
2023-05-17T19:22:49.268Z,11.13
2023-05-17T19:25:17.905Z,11.10
2023-05-17T19:27:47.896Z,11.09
2023-05-17T19:30:15.488Z,11.15
2023-05-17T19:32:43.026Z,11.12
2023-05-17T19:35:10.988Z,11.05
2023-05-17T19:37:38.616Z,10.96
2023-05-17T19:40:06.924Z,10.91
2023-05-17T19:42:34.528Z,10.89
2023-05-17T19:45:02.154Z,10.83
2023-05-17T19:47:29.696Z,10.73
2023-05-17T19:49:57.184Z,10.70
2023-05-17T19:52:24.783Z,10.67
2023-05-17T19:54:52.404Z,10.65
2023-05-17T19:57:19.962Z,10.60
2023-05-17T19:59:47.529Z,10.60
2023-05-17T20:02:15.399Z,10.62
2023-05-17T20:04:43.014Z,10.56
2023-05-17T20:07:10.823Z,10.54
2023-05-17T20:09:38.697Z,10.55
2023-05-17T20:12:07.312Z,10.46
2023-05-17T20:14:35.278Z,10.44
2023-05-17T20:17:02.772Z,10.48
2023-05-17T20:19:30.266Z,10.53
2023-05-17T20:21:57.848Z,10.52
2023-05-17T20:24:29.007Z,10.50
2023-05-17T20:26:59.764Z,10.47
2023-05-17T20:29:27.504Z,10.50
2023-05-17T20:31:55.183Z,10.48
2023-05-17T20:34:22.956Z,10.43
2023-05-17T20:36:50.604Z,10.42
2023-05-17T20:39:19.209Z,10.36
2023-05-17T20:41:49.004Z,10.26
2023-05-17T20:44:18.941Z,10.18
2023-05-17T20:46:46.806Z,10.10
2023-05-17T20:49:14.357Z,10.15
2023-05-17T20:51:41.845Z,10.07
2023-05-17T20:54:09.472Z,10.05
2023-05-17T20:56:37.210Z,10.02
2023-05-17T20:59:04.713Z,9.92
2023-05-17T21:01:32.763Z,9.85
2023-05-17T21:04:01.517Z,9.79
2023-05-17T21:06:32.322Z,9.77
2023-05-17T21:09:02.646Z,9.82
2023-05-17T21:11:30.530Z,9.75
2023-05-17T21:13:59.853Z,9.69
2023-05-17T21:16:27.510Z,9.65
2023-05-17T21:18:55.326Z,9.59
2023-05-17T21:21:22.961Z,9.62
2023-05-17T21:23:50.491Z,9.59
2023-05-17T21:26:18.027Z,9.61
2023-05-17T21:28:45.832Z,9.52
2023-05-17T21:31:13.521Z,9.51
2023-05-17T21:33:41.070Z,9.48
2023-05-17T21:36:08.638Z,9.43
2023-05-17T21:38:36.238Z,9.38
2023-05-17T21:41:03.803Z,9.41
2023-05-17T21:43:31.368Z,9.45
2023-05-17T21:45:58.909Z,9.51
2023-05-17T21:48:26.427Z,9.46
2023-05-17T21:50:53.961Z,9.41
2023-05-17T21:53:21.755Z,9.38
2023-05-17T21:56:01.300Z,9.30
2023-05-17T21:58:31.311Z,9.32
2023-05-17T22:00:58.958Z,9.26
2023-05-17T22:03:27.030Z,9.20
2023-05-17T22:05:54.819Z,9.18
2023-05-17T22:08:22.549Z,9.15
2023-05-17T22:10:50.426Z,9.07
2023-05-17T22:13:18.521Z,9.07
2023-05-17T22:15:46.237Z,9.01
2023-05-17T22:18:14.031Z,8.96
2023-05-17T22:20:41.673Z,9.00
2023-05-17T22:23:09.412Z,8.94
2023-05-17T22:25:42.422Z,8.87
2023-05-17T22:28:11.326Z,8.83
2023-05-17T22:30:38.833Z,8.73
2023-05-17T22:33:06.561Z,8.67
2023-05-17T22:35:34.031Z,8.66
2023-05-17T22:38:01.592Z,8.66
2023-05-17T22:40:29.401Z,8.61
2023-05-17T22:42:58.826Z,8.55
2023-05-17T22:45:30.228Z,8.70
2023-05-17T22:47:58.011Z,8.79
2023-05-17T22:50:30.877Z,8.73
2023-05-17T22:53:01.469Z,8.67
2023-05-17T22:55:29.464Z,8.61
2023-05-17T22:57:57.912Z,8.54
2023-05-17T23:00:26.314Z,8.56
2023-05-17T23:02:54.046Z,8.61
2023-05-17T23:05:22.339Z,8.57
2023-05-17T23:07:49.844Z,8.47
2023-05-17T23:10:17.376Z,8.41
2023-05-17T23:12:44.842Z,8.44
2023-05-17T23:15:12.663Z,8.38
2023-05-17T23:17:41.361Z,8.38
2023-05-17T23:20:10.517Z,8.48
2023-05-17T23:22:39.140Z,8.55
2023-05-17T23:25:07.090Z,8.55
2023-05-17T23:27:38.381Z,8.52
2023-05-17T23:30:07.469Z,8.43
2023-05-17T23:32:35.043Z,8.35
2023-05-17T23:35:05.462Z,8.33
2023-05-17T23:37:33.878Z,8.30
2023-05-17T23:40:01.900Z,8.36
2023-05-17T23:42:29.692Z,8.40
2023-05-17T23:44:57.410Z,8.34
2023-05-17T23:47:25.857Z,8.35
2023-05-17T23:49:53.576Z,8.37
2023-05-17T23:52:23.829Z,8.41
2023-05-17T23:54:51.525Z,8.39
2023-05-17T23:57:18.961Z,8.38
2023-05-17T23:59:46.519Z,8.34
